createdAt,value
2023-01-12T00:00:43.627Z,0
2023-01-12T00:05:45.545Z,0.88715
2023-01-12T00:10:47.030Z,0
2023-01-12T00:15:48.759Z,0
2023-01-12T00:20:50.713Z,0
2023-01-12T00:25:52.467Z,0.88715
2023-01-12T00:30:54.222Z,0
2023-01-12T00:35:56.240Z,0
2023-01-12T00:40:58.035Z,0
2023-01-12T00:45:59.846Z,0
2023-01-12T00:51:01.828Z,0
2023-01-12T00:56:03.569Z,0.88715
2023-01-12T01:01:05.117Z,0
2023-01-12T01:06:06.711Z,0
2023-01-12T01:11:08.174Z,0.88715
2023-01-12T01:16:09.895Z,0
2023-01-12T01:21:11.631Z,0
2023-01-12T01:26:13.176Z,0
2023-01-12T01:31:14.730Z,0
2023-01-12T01:36:16.333Z,0
2023-01-12T01:41:18.572Z,0
2023-01-12T01:46:20.290Z,0
2023-01-12T01:51:22.304Z,0
2023-01-12T01:56:24.085Z,0.88715
2023-01-12T02:01:25.912Z,0
2023-01-12T02:06:27.871Z,0.88715
2023-01-12T02:11:29.492Z,0.88715
2023-01-12T02:16:31.170Z,0
2023-01-12T02:21:33.093Z,0.88715
2023-01-12T02:26:34.729Z,0
2023-01-12T02:31:36.579Z,0
2023-01-12T02:36:38.341Z,0
2023-01-12T02:41:39.802Z,0.88715
2023-01-12T02:46:41.545Z,0.88715
2023-01-12T02:51:43.443Z,0.88715
2023-01-12T02:56:45.166Z,0
2023-01-12T03:01:47.059Z,2.3237
2023-01-12T03:06:48.864Z,1.6592
2023-01-12T03:11:50.635Z,4.59225
2023-01-12T03:16:52.065Z,8.63115
2023-01-12T03:21:54.019Z,16.34005
2023-01-12T03:26:55.800Z,31.2045
2023-01-12T03:31:57.532Z,56.34115
2023-01-12T03:36:59.418Z,80.31595
2023-01-12T03:42:01.074Z,105.26815
2023-01-12T03:47:02.734Z,135.2918
2023-01-12T03:52:04.517Z,162.99175
2023-01-12T03:57:05.974Z,192.6465
2023-01-12T04:02:07.676Z,209.46575
2023-01-12T04:07:09.232Z,232.70275
2023-01-12T04:12:10.824Z,259.24085
2023-01-12T04:17:12.390Z,277.9046
2023-01-12T04:22:14.372Z,420.5554
2023-01-12T04:27:15.868Z,308.7212
2023-01-12T04:32:17.663Z,322.23935
2023-01-12T04:37:19.123Z,331.05495
2023-01-12T04:42:20.970Z,334.85425
2023-01-12T04:47:22.582Z,358.8842
2023-01-12T04:52:24.416Z,367.3309
2023-01-12T04:57:26.185Z,385.9395
2023-01-12T05:02:27.657Z,442.1152
2023-01-12T05:07:29.156Z,478.1154
2023-01-12T05:12:30.607Z,497.5911
2023-01-12T05:17:32.078Z,517.36155
2023-01-12T05:22:33.819Z,527.41315
2023-01-12T05:27:35.307Z,523.80015
2023-01-12T05:32:37.021Z,504.10755
2023-01-12T05:37:38.679Z,468.2992
2023-01-12T05:42:40.145Z,475.369
2023-01-12T05:47:41.615Z,518.44255
2023-01-12T05:52:43.292Z,572.3661
2023-01-12T05:57:44.775Z,615.74205
2023-01-12T06:02:46.580Z,643.94825
2023-01-12T06:07:48.083Z,684.65785
2023-01-12T06:12:49.720Z,696.2125
2023-01-12T06:17:51.270Z,722.70025
2023-01-12T06:22:53.073Z,745.81025
2023-01-12T06:27:54.555Z,762.22425
2023-01-12T06:32:56.062Z,786.7565
2023-01-12T06:37:57.744Z,801.5114
2023-01-12T06:42:59.311Z,823.91035
2023-01-12T06:48:00.970Z,845.42045
2023-01-12T06:53:03.571Z,859.28635
2023-01-12T06:58:05.073Z,872.2042
2023-01-12T07:03:06.556Z,881.4481
2023-01-12T07:08:08.186Z,888.91435
2023-01-12T07:13:09.726Z,908.05415
2023-01-12T07:18:11.580Z,908.5281
2023-01-12T07:23:14.248Z,928.79385
2023-01-12T07:28:15.979Z,947.69675
2023-01-12T07:33:18.766Z,961.5035
2023-01-12T07:38:20.378Z,978.2138
2023-01-12T07:43:21.894Z,981.05815
2023-01-12T07:48:23.572Z,991.8428
2023-01-12T07:53:25.993Z,1006.83465
2023-01-12T07:58:27.499Z,1015.30845
2023-01-12T08:03:29.016Z,1027.8116
2023-01-12T08:08:30.615Z,1038.59635
2023-01-12T08:13:32.335Z,1058.0919
2023-01-12T08:18:33.866Z,1069.35045
2023-01-12T08:23:35.634Z,1071.83925
2023-01-12T08:28:37.145Z,1089.91255
2023-01-12T08:33:38.629Z,1094.9495
2023-01-12T08:38:40.151Z,1115.8078
2023-01-12T08:43:41.684Z,1128.0739
2023-01-12T08:48:43.346Z,1137.43655
2023-01-12T08:53:45.926Z,1153.96925
2023-01-12T08:58:47.607Z,1161.19855
2023-01-12T09:03:49.203Z,1174.5908
2023-01-12T09:08:51.159Z,1192.96045
2023-01-12T09:13:52.960Z,1201.2564
2023-01-12T09:18:54.753Z,1221.04835
2023-01-12T09:23:56.846Z,1231.77385
2023-01-12T09:28:58.601Z,1247.12145
2023-01-12T09:34:00.387Z,1265.72825
2023-01-12T09:39:02.742Z,1274.1428
2023-01-12T09:44:05.259Z,1287.41645
2023-01-12T09:49:06.790Z,1297.60885
2023-01-12T09:54:08.605Z,1311.41575
2023-01-12T09:59:10.456Z,1325.8746
2023-01-12T10:04:12.206Z,1340.51105
2023-01-12T10:09:13.798Z,1351.53295
2023-01-12T10:14:15.559Z,1361.60675
2023-01-12T10:19:17.204Z,1373.28045
2023-01-12T10:24:20.059Z,1384.89495
2023-01-12T10:29:21.885Z,1398.1095
2023-01-12T10:34:23.673Z,1407.29435
2023-01-12T10:39:25.529Z,1426.01975
2023-01-12T10:44:27.345Z,1434.67145
2023-01-12T10:49:29.130Z,1451.50065
2023-01-12T10:54:31.935Z,1463.767
2023-01-12T10:59:33.766Z,1481.4851
2023-01-12T11:04:35.557Z,1492.56625
2023-01-12T11:09:37.414Z,1507.55845
2023-01-12T11:14:39.164Z,1517.6917
2023-01-12T11:19:40.990Z,1536.4171
2023-01-12T11:24:43.664Z,1538.8468
2023-01-12T11:29:45.556Z,1551.5874
2023-01-12T11:34:47.402Z,1569.3056
2023-01-12T11:39:49.177Z,1575.5871
2023-01-12T11:44:51.005Z,1586.84615
2023-01-12T11:49:52.781Z,1607.5271
2023-01-12T11:54:55.333Z,1614.4604
2023-01-12T11:59:57.184Z,1626.6084
2023-01-12T12:04:58.978Z,1628.1493
2023-01-12T12:10:00.759Z,1646.99315
2023-01-12T12:15:02.594Z,1651.7341
2023-01-12T12:20:04.412Z,1651.6159
2023-01-12T12:25:06.456Z,1665.7193
2023-01-12T12:30:08.144Z,1664.23835
2023-01-12T12:35:09.656Z,1669.2755
2023-01-12T12:40:11.184Z,1678.1051
2023-01-12T12:45:12.925Z,1685.86825
2023-01-12T12:50:14.616Z,1685.51325
2023-01-12T12:55:16.415Z,1692.62435
2023-01-12T13:00:18.027Z,1687.41025
2023-01-12T13:05:19.683Z,1682.2554
2023-01-12T13:10:21.248Z,1690.43335
2023-01-12T13:15:22.956Z,1684.8044
2023-01-12T13:20:26.338Z,1672.3018
2023-01-12T13:25:28.498Z,1666.4951
2023-01-12T13:30:30.272Z,1713.6748
2023-01-12T13:35:31.971Z,1769.8658
2023-01-12T13:40:33.727Z,1822.1472
2023-01-12T13:45:35.263Z,1903.3817
2023-01-12T13:50:37.287Z,1951.91895
2023-01-12T13:55:40.011Z,2016.05845
2023-01-12T14:00:42.121Z,2056.6282
2023-01-12T14:05:43.877Z,2117.87165
2023-01-12T14:10:45.659Z,2164.26965
2023-01-12T14:15:47.385Z,2198.44065
2023-01-12T14:20:49.113Z,2217.08355
2023-01-12T14:25:51.612Z,2233.7165
2023-01-12T14:30:53.343Z,2233.84395
2023-01-12T14:35:55.140Z,2226.57625
2023-01-12T14:40:57.074Z,2201.7515
2023-01-12T14:45:58.940Z,2191.34815
2023-01-12T14:51:00.745Z,2158.15085
2023-01-12T14:56:03.636Z,2116.52585
2023-01-12T15:01:05.463Z,2065.34745
2023-01-12T15:06:07.302Z,1994.58305
2023-01-12T15:11:08.899Z,1916.3132
2023-01-12T15:16:10.935Z,1835.09215
2023-01-12T15:21:12.477Z,1766.35485
2023-01-12T15:26:15.075Z,1718.10495
2023-01-12T15:31:16.939Z,1647.24555
2023-01-12T15:36:18.472Z,1577.64115
2023-01-12T15:41:20.255Z,1490.79345
2023-01-12T15:46:21.999Z,1383.1066
2023-01-12T15:51:23.650Z,1270.6069
2023-01-12T15:56:25.573Z,1138.1903
2023-01-12T16:01:27.256Z,982.4074
2023-01-12T16:06:28.979Z,817.9382
2023-01-12T16:11:30.615Z,636.04125
2023-01-12T16:16:32.163Z,511.1491
2023-01-12T16:21:33.673Z,387.4378
2023-01-12T16:26:35.622Z,276.15695
2023-01-12T16:31:39.151Z,203.4016
2023-01-12T16:36:41.270Z,164.67265
2023-01-12T16:41:43.196Z,129.0052
2023-01-12T16:46:45.073Z,96.8233
2023-01-12T16:51:47.057Z,72.221
2023-01-12T16:56:49.176Z,56.9135
2023-01-12T17:01:51.107Z,36.719
2023-01-12T17:06:53.146Z,23.07155
2023-01-12T17:11:55.224Z,9.5534
2023-01-12T17:16:57.582Z,4.5628
2023-01-12T17:21:59.609Z,2.25175
2023-01-12T17:27:01.856Z,0.8296
2023-01-12T17:32:03.569Z,1.16185
2023-01-12T17:37:06.221Z,0.88715
2023-01-12T17:42:08.608Z,0.88715
2023-01-12T17:47:10.338Z,0.88715
2023-01-12T17:52:12.196Z,0.88715
2023-01-12T17:57:14.736Z,0
2023-01-12T18:02:16.980Z,0
2023-01-12T18:07:19.209Z,0.88715
2023-01-12T18:12:21.466Z,0
2023-01-12T18:17:23.634Z,0
2023-01-12T18:22:25.692Z,0
2023-01-12T18:27:29.129Z,0
2023-01-12T18:32:32.264Z,0
2023-01-12T18:37:35.720Z,0
2023-01-12T18:42:39.278Z,0
2023-01-12T18:47:42.816Z,0.88715
2023-01-12T18:52:46.344Z,0
2023-01-12T18:57:50.691Z,0
2023-01-12T19:02:54.437Z,0
2023-01-12T19:07:58.401Z,0
2023-01-12T19:13:01.962Z,0
2023-01-12T19:18:05.556Z,0
2023-01-12T19:23:08.767Z,0
2023-01-12T19:28:12.715Z,0
2023-01-12T19:33:16.383Z,0
2023-01-12T19:38:20.521Z,0
2023-01-12T19:43:24.063Z,0
2023-01-12T19:48:27.464Z,0
2023-01-12T19:53:30.708Z,0
2023-01-12T19:58:34.285Z,0
2023-01-12T20:03:37.204Z,0
2023-01-12T20:08:39.690Z,0
2023-01-12T20:13:42.464Z,0
2023-01-12T20:18:44.924Z,0.88715
2023-01-12T20:23:47.630Z,0
2023-01-12T20:28:50.521Z,0
2023-01-12T20:33:53.115Z,0.88715
2023-01-12T20:38:55.704Z,0
2023-01-12T20:43:58.369Z,0
2023-01-12T20:49:00.793Z,0
2023-01-12T20:54:03.457Z,0.88715
2023-01-12T20:59:06.392Z,0
2023-01-12T21:04:08.920Z,0
2023-01-12T21:09:11.403Z,0
2023-01-12T21:14:13.552Z,0
2023-01-12T21:19:16.160Z,0
2023-01-12T21:24:18.211Z,0
2023-01-12T21:29:20.010Z,0
2023-01-12T21:34:21.970Z,0
2023-01-12T21:39:23.614Z,0
2023-01-12T21:44:25.235Z,0
2023-01-12T21:49:27.145Z,0
2023-01-12T21:54:28.993Z,0.88715
2023-01-12T21:59:31.428Z,0.88715
2023-01-12T22:04:33.219Z,0
2023-01-12T22:09:35.044Z,0
2023-01-12T22:14:37.022Z,0
2023-01-12T22:19:39.567Z,0
2023-01-12T22:24:41.416Z,0
2023-01-12T22:29:43.440Z,0
2023-01-12T22:34:45.249Z,0
2023-01-12T22:39:47.034Z,0
2023-01-12T22:44:48.902Z,0.88715
2023-01-12T22:49:50.603Z,0
2023-01-12T22:54:52.417Z,0
2023-01-12T22:59:54.668Z,0.88715
2023-01-12T23:04:56.710Z,0
2023-01-12T23:09:58.519Z,0
2023-01-12T23:15:00.394Z,0.88715
2023-01-12T23:20:02.198Z,0
2023-01-12T23:25:04.078Z,0
2023-01-12T23:30:06.133Z,0.88715
2023-01-12T23:35:07.944Z,0
2023-01-12T23:40:09.758Z,0
2023-01-12T23:45:11.385Z,0
2023-01-12T23:50:13.327Z,0
2023-01-12T23:55:14.825Z,0
